createdAt,value
2019-03-21T00:02:11.359Z,70.20
2019-03-21T00:04:48.133Z,70.43
2019-03-21T00:07:19.437Z,70.37
2019-03-21T00:10:12.553Z,70.62
2019-03-21T00:12:44.145Z,70.59
2019-03-21T00:15:21.558Z,70.38
2019-03-21T00:17:55.787Z,70.53
2019-03-21T00:20:27.175Z,70.39
2019-03-21T00:22:58.445Z,70.38
2019-03-21T00:25:29.706Z,70.42
2019-03-21T00:28:01.468Z,70.60
2019-03-21T00:30:32.611Z,70.63
2019-03-21T00:33:04.011Z,70.59
2019-03-21T00:35:35.745Z,70.75
2019-03-21T00:38:08.064Z,70.91
2019-03-21T00:40:44.021Z,70.91
2019-03-21T00:43:16.655Z,70.95
2019-03-21T00:45:48.928Z,71.12
2019-03-21T00:48:21.396Z,70.94
2019-03-21T00:50:52.777Z,71.03
2019-03-21T00:53:24.049Z,70.82
2019-03-21T00:55:58.456Z,70.78
2019-03-21T00:58:30.628Z,70.91
2019-03-21T01:01:07.967Z,70.93
2019-03-21T01:16:44.807Z,71.56
2019-03-21T01:19:15.960Z,71.44
2019-03-21T01:21:47.080Z,71.59
2019-03-21T01:24:18.357Z,71.82
2019-03-21T01:26:49.370Z,72.18
2019-03-21T01:29:20.498Z,72.21
2019-03-21T01:31:51.510Z,71.96
2019-03-21T01:34:23.334Z,71.87
2019-03-21T01:36:54.501Z,72.18
2019-03-21T01:39:25.699Z,72.56
2019-03-21T01:41:56.648Z,72.71
2019-03-21T01:44:28.704Z,72.98
2019-03-21T01:46:59.916Z,73.11
2019-03-21T01:49:30.970Z,72.96
2019-03-21T01:52:02.057Z,73.31
2019-03-21T01:54:33.105Z,73.36
2019-03-21T01:57:04.094Z,73.61
2019-03-21T01:59:35.301Z,73.52
2019-03-21T02:02:06.417Z,73.61
2019-03-21T02:04:37.527Z,73.90
2019-03-21T02:07:08.618Z,74.14
2019-03-21T02:09:39.850Z,74.02
2019-03-21T02:12:10.933Z,74.17
2019-03-21T02:14:51.823Z,74.44
2019-03-21T02:17:14.919Z,74.50
2019-03-21T02:19:46.000Z,74.63
2019-03-21T02:22:17.074Z,74.91
2019-03-21T02:24:48.269Z,75.10
2019-03-21T02:27:19.292Z,75.33
2019-03-21T02:29:50.338Z,75.51
2019-03-21T02:32:21.425Z,75.63
2019-03-21T02:34:52.518Z,75.56
2019-03-21T02:37:23.730Z,75.54
2019-03-21T02:39:59.891Z,75.68
2019-03-21T02:42:29.167Z,75.63
2019-03-21T02:45:08.431Z,75.96
2019-03-21T02:47:34.125Z,75.68
2019-03-21T02:50:08.519Z,75.75
2019-03-21T02:52:39.664Z,75.77
2019-03-21T02:55:11.864Z,75.93
2019-03-21T02:57:43.172Z,76.09
2019-03-21T03:00:23.268Z,76.15
2019-03-21T03:02:57.216Z,76.50
2019-03-21T03:05:31.837Z,76.13
2019-03-21T03:08:03.192Z,75.88
2019-03-21T03:10:49.518Z,75.77
2019-03-21T03:13:20.692Z,75.65
2019-03-21T03:15:52.894Z,75.78
2019-03-21T03:18:25.234Z,75.94
2019-03-21T03:20:56.396Z,75.98
2019-03-21T03:23:27.638Z,76.14
2019-03-21T03:26:00.313Z,75.97
2019-03-21T03:28:40.339Z,76.03
2019-03-21T03:31:11.403Z,75.94
2019-03-21T03:33:42.716Z,75.94
2019-03-21T03:36:15.871Z,75.80
2019-03-21T03:38:46.995Z,75.48
2019-03-21T03:41:20.180Z,75.75
2019-03-21T03:43:51.214Z,76.04
2019-03-21T03:46:22.401Z,76.01
2019-03-21T03:48:53.444Z,75.78
2019-03-21T03:51:24.553Z,75.92
2019-03-21T03:53:55.846Z,75.85
2019-03-21T03:56:27.077Z,75.86
2019-03-21T03:59:04.581Z,75.71
2019-03-21T04:01:35.721Z,75.49
2019-03-21T04:04:07.866Z,75.42
2019-03-21T04:06:40.500Z,75.37
2019-03-21T04:09:12.845Z,75.29
2019-03-21T04:11:45.310Z,74.97
2019-03-21T04:14:16.384Z,74.93
2019-03-21T04:16:47.642Z,75.01
2019-03-21T04:19:18.690Z,74.46
2019-03-21T04:21:49.901Z,74.47
2019-03-21T04:24:21.096Z,74.33
2019-03-21T04:26:52.140Z,74.41
2019-03-21T04:29:23.158Z,74.26
2019-03-21T04:31:54.403Z,73.99
2019-03-21T04:34:25.702Z,74.09
2019-03-21T04:36:56.777Z,73.83
2019-03-21T04:39:28.167Z,74.04
2019-03-21T04:41:59.401Z,73.53
2019-03-21T04:44:30.558Z,73.50
2019-03-21T04:47:03.235Z,73.38
2019-03-21T04:49:34.463Z,73.34
2019-03-21T04:52:06.085Z,73.16
2019-03-21T04:54:37.147Z,73.05
2019-03-21T04:57:08.363Z,72.88
2019-03-21T04:59:39.580Z,72.91
2019-03-21T05:02:10.803Z,72.87
2019-03-21T05:04:41.969Z,72.66
2019-03-21T05:07:13.140Z,71.92
2019-03-21T05:09:44.478Z,71.77
2019-03-21T05:12:15.625Z,71.47
2019-03-21T05:14:46.890Z,71.06
2019-03-21T05:17:19.746Z,70.87
2019-03-21T05:19:50.856Z,71.10
2019-03-21T05:22:22.045Z,70.72
2019-03-21T05:24:53.139Z,70.40
2019-03-21T05:27:24.269Z,70.36
2019-03-21T05:29:55.399Z,69.77
2019-03-21T05:32:26.455Z,69.36
2019-03-21T05:34:57.564Z,69.49
2019-03-21T05:37:28.878Z,69.03
2019-03-21T05:40:00.364Z,68.71
2019-03-21T05:42:31.720Z,68.91
2019-03-21T05:45:02.969Z,68.31
2019-03-21T05:47:34.436Z,67.95
2019-03-21T05:50:08.754Z,67.73
2019-03-21T05:52:40.155Z,67.12
2019-03-21T05:55:12.312Z,67.31
2019-03-21T05:57:44.414Z,66.81
2019-03-21T06:00:36.937Z,67.52
2019-03-21T06:03:11.665Z,67.04
2019-03-21T06:05:48.820Z,66.66
2019-03-21T06:08:23.494Z,66.72
2019-03-21T06:10:54.580Z,65.63
2019-03-21T06:13:25.649Z,65.31
2019-03-21T06:16:08.476Z,65.18
2019-03-21T06:19:04.327Z,65.04
2019-03-21T06:21:41.619Z,64.18
2019-03-21T06:24:28.225Z,63.65
2019-03-21T06:27:14.502Z,63.60
2019-03-21T06:29:41.642Z,64.74
2019-03-21T06:32:13.111Z,64.46
2019-03-21T06:34:44.662Z,63.84
2019-03-21T06:37:15.792Z,62.98
2019-03-21T06:39:46.982Z,63.22
2019-03-21T06:42:21.057Z,62.98
2019-03-21T06:44:52.212Z,62.42
2019-03-21T06:47:23.329Z,62.64
2019-03-21T06:49:54.446Z,62.87
2019-03-21T06:52:25.562Z,62.64
2019-03-21T06:54:56.708Z,62.17
2019-03-21T06:57:27.672Z,61.25
2019-03-21T06:59:58.831Z,61.36
2019-03-21T07:02:29.901Z,61.03
2019-03-21T07:05:01.213Z,60.11
2019-03-21T07:07:32.521Z,59.49
2019-03-21T07:10:05.306Z,58.95
2019-03-21T07:12:37.689Z,58.63
2019-03-21T07:15:11.747Z,57.68
2019-03-21T07:17:42.894Z,56.83
2019-03-21T07:20:16.633Z,56.18
2019-03-21T07:22:47.732Z,55.00
2019-03-21T07:25:18.969Z,54.62
2019-03-21T07:27:50.257Z,54.25
2019-03-21T07:30:21.456Z,53.83
2019-03-21T07:32:52.729Z,52.75
2019-03-21T07:35:23.927Z,51.58
2019-03-21T07:37:55.027Z,50.68
2019-03-21T07:40:26.152Z,50.81
2019-03-21T07:42:57.310Z,50.59
2019-03-21T07:45:28.884Z,50.65
2019-03-21T07:48:00.036Z,50.64
2019-03-21T07:50:31.142Z,49.49
2019-03-21T07:53:02.196Z,49.17
2019-03-21T07:55:34.508Z,48.99
2019-03-21T07:58:06.796Z,48.56
2019-03-21T08:00:38.663Z,47.69
2019-03-21T08:03:09.823Z,45.14
2019-03-21T08:05:41.028Z,45.50
2019-03-21T08:08:12.296Z,46.36
2019-03-21T08:10:43.719Z,45.97
2019-03-21T08:13:14.715Z,45.65
2019-03-21T08:15:45.949Z,46.18
2019-03-21T08:18:17.160Z,46.16
2019-03-21T08:20:57.320Z,45.33
2019-03-21T08:23:21.252Z,44.80
2019-03-21T08:25:52.527Z,45.24
2019-03-21T08:28:23.773Z,43.92
2019-03-21T08:31:06.486Z,43.39
2019-03-21T08:33:37.607Z,43.74
2019-03-21T08:36:08.762Z,43.76
2019-03-21T08:38:39.928Z,43.96
2019-03-21T08:41:11.344Z,43.31
2019-03-21T08:43:42.577Z,42.99
2019-03-21T08:46:13.698Z,42.77
2019-03-21T08:48:44.934Z,42.32
2019-03-21T08:51:15.961Z,42.01
2019-03-21T08:53:47.036Z,40.88
2019-03-21T08:56:18.181Z,39.19
2019-03-21T08:58:49.273Z,37.57
2019-03-21T09:01:20.467Z,37.55
2019-03-21T09:03:53.295Z,38.52
2019-03-21T09:06:24.505Z,37.43
2019-03-21T09:08:55.594Z,36.90
2019-03-21T09:11:26.852Z,36.74
2019-03-21T09:13:57.916Z,36.02
2019-03-21T09:16:28.970Z,36.18
2019-03-21T09:18:59.949Z,36.73
2019-03-21T09:21:32.699Z,36.54
2019-03-21T09:24:03.713Z,36.20
2019-03-21T09:26:35.836Z,35.86
2019-03-21T09:29:06.933Z,35.66
2019-03-21T09:31:38.035Z,35.71
2019-03-21T09:34:09.138Z,35.62
2019-03-21T09:36:40.357Z,36.71
2019-03-21T09:39:11.405Z,36.56
2019-03-21T09:41:42.603Z,36.63
2019-03-21T09:44:15.586Z,36.89
2019-03-21T09:46:50.982Z,35.73
2019-03-21T09:49:19.759Z,36.69
2019-03-21T09:51:51.568Z,35.94
2019-03-21T09:54:22.790Z,36.90
2019-03-21T09:56:54.804Z,37.16
2019-03-21T09:59:26.135Z,37.22
2019-03-21T10:01:57.621Z,35.77
2019-03-21T10:04:31.092Z,35.73
2019-03-21T10:07:06.213Z,36.32
2019-03-21T10:09:39.005Z,36.32
2019-03-21T10:12:10.466Z,35.37
2019-03-21T10:14:42.309Z,34.89
2019-03-21T10:17:13.539Z,34.71
2019-03-21T10:19:45.189Z,34.03
2019-03-21T10:22:16.458Z,35.50
2019-03-21T10:24:47.438Z,34.77
2019-03-21T10:27:18.306Z,35.11
2019-03-21T10:29:49.295Z,35.25
2019-03-21T10:32:20.482Z,35.59
2019-03-21T10:34:51.606Z,36.02
2019-03-21T10:37:22.824Z,36.03
2019-03-21T10:39:54.968Z,36.80
2019-03-21T10:42:26.179Z,37.99
2019-03-21T10:44:57.320Z,37.62
2019-03-21T10:47:28.417Z,36.78
2019-03-21T10:49:59.400Z,36.33
2019-03-21T10:52:32.059Z,36.75
2019-03-21T10:55:03.671Z,36.93
2019-03-21T10:57:34.868Z,37.18
2019-03-21T11:00:07.655Z,36.82
2019-03-21T11:02:38.757Z,36.66
2019-03-21T11:05:10.818Z,35.86
2019-03-21T11:07:41.964Z,36.18
2019-03-21T11:10:13.063Z,35.87
2019-03-21T11:12:44.326Z,35.54
2019-03-21T11:15:15.327Z,34.81
2019-03-21T11:17:46.548Z,34.64
2019-03-21T11:20:32.856Z,34.91
2019-03-21T11:23:04.525Z,35.58
2019-03-21T11:25:36.215Z,35.02
2019-03-21T11:28:07.341Z,34.97
2019-03-21T11:30:40.293Z,35.54
2019-03-21T11:33:11.871Z,36.64
2019-03-21T11:35:42.961Z,37.22
2019-03-21T11:38:14.135Z,37.54
2019-03-21T11:40:45.145Z,38.22
2019-03-21T11:43:16.252Z,38.26
2019-03-21T11:45:48.013Z,38.51
2019-03-21T11:48:19.535Z,38.75
2019-03-21T11:50:50.507Z,38.83
2019-03-21T11:53:22.580Z,38.47
2019-03-21T11:55:53.558Z,38.51
2019-03-21T11:58:24.814Z,38.25
2019-03-21T12:00:55.934Z,37.89
2019-03-21T12:03:27.075Z,37.25
2019-03-21T12:05:58.191Z,36.89
2019-03-21T12:08:29.406Z,36.37
2019-03-21T12:11:00.511Z,36.56
2019-03-21T12:13:31.605Z,36.64
2019-03-21T12:16:02.770Z,36.33
2019-03-21T12:18:35.025Z,36.35
2019-03-21T12:21:06.297Z,36.38
2019-03-21T12:23:38.082Z,36.78
2019-03-21T12:26:09.298Z,36.99
2019-03-21T12:28:40.665Z,37.17
2019-03-21T12:31:11.836Z,36.24
2019-03-21T12:33:43.460Z,36.80
2019-03-21T12:36:14.700Z,36.55
2019-03-21T12:38:45.943Z,36.33
2019-03-21T12:41:17.171Z,36.75
2019-03-21T12:43:50.417Z,36.87
2019-03-21T12:46:21.572Z,36.19
2019-03-21T12:48:58.123Z,36.34
2019-03-21T12:51:29.057Z,36.13
2019-03-21T12:54:00.196Z,36.08
2019-03-21T12:56:32.923Z,36.27
2019-03-21T12:59:07.309Z,35.82
2019-03-21T13:01:43.216Z,35.82
2019-03-21T13:04:14.367Z,35.40
2019-03-21T13:06:45.749Z,35.40
2019-03-21T13:09:16.857Z,35.71
2019-03-21T13:11:47.962Z,35.61
2019-03-21T13:14:19.119Z,36.63
2019-03-21T13:16:50.254Z,35.89
2019-03-21T13:19:21.445Z,36.44
2019-03-21T13:21:52.638Z,37.10
2019-03-21T13:24:23.832Z,37.69
2019-03-21T13:26:55.039Z,37.22
2019-03-21T13:29:27.285Z,37.93
2019-03-21T13:31:58.324Z,37.43
2019-03-21T13:34:29.494Z,37.21
2019-03-21T13:37:00.827Z,36.55
2019-03-21T13:39:31.939Z,36.18
2019-03-21T13:42:04.251Z,36.05
2019-03-21T13:44:35.376Z,35.59
2019-03-21T13:47:08.390Z,35.37
2019-03-21T13:49:39.387Z,35.54
2019-03-21T13:52:10.706Z,36.26
2019-03-21T13:54:42.782Z,37.50
2019-03-21T13:57:13.963Z,38.66
2019-03-21T13:59:45.114Z,38.79
2019-03-21T14:02:16.093Z,39.33
2019-03-21T14:04:47.193Z,39.00
2019-03-21T14:07:18.263Z,39.43
2019-03-21T14:09:49.321Z,38.52
2019-03-21T14:12:22.896Z,38.31
2019-03-21T14:14:54.087Z,38.12
2019-03-21T14:17:25.237Z,38.98
2019-03-21T14:19:56.384Z,39.14
2019-03-21T14:22:27.589Z,39.52
2019-03-21T14:24:58.685Z,39.48
2019-03-21T14:27:29.943Z,39.85
2019-03-21T14:30:02.202Z,40.23
2019-03-21T14:32:33.617Z,40.73
2019-03-21T14:35:06.395Z,41.44
2019-03-21T14:37:38.435Z,40.70
2019-03-21T14:40:12.587Z,40.21
2019-03-21T14:42:43.751Z,41.43
2019-03-21T14:45:16.505Z,40.72
2019-03-21T14:47:48.706Z,41.24
2019-03-21T14:50:19.902Z,41.13
2019-03-21T14:52:51.123Z,41.88
2019-03-21T14:55:22.291Z,41.82
2019-03-21T14:57:53.579Z,41.95
2019-03-21T15:00:24.710Z,41.87
2019-03-21T15:02:56.177Z,41.63
2019-03-21T15:05:27.332Z,41.36
2019-03-21T15:07:58.654Z,41.75
2019-03-21T15:10:29.912Z,42.16
2019-03-21T15:13:00.916Z,42.35
2019-03-21T15:15:32.402Z,41.26
2019-03-21T15:18:03.801Z,40.35
2019-03-21T15:20:34.978Z,40.09
2019-03-21T15:23:06.063Z,40.21
2019-03-21T15:25:37.331Z,39.97
2019-03-21T15:28:08.471Z,40.44
2019-03-21T15:30:39.515Z,40.48
2019-03-21T15:33:10.620Z,40.72
2019-03-21T15:35:41.927Z,41.11
2019-03-21T15:38:13.087Z,41.03
2019-03-21T15:40:44.426Z,41.14
2019-03-21T15:43:15.575Z,41.13
2019-03-21T15:45:47.248Z,40.76
2019-03-21T15:48:20.845Z,41.07
2019-03-21T15:51:03.601Z,41.33
2019-03-21T15:53:24.251Z,41.56
2019-03-21T15:55:55.414Z,41.72
2019-03-21T15:58:28.608Z,41.97
2019-03-21T16:00:59.951Z,42.23
2019-03-21T16:03:31.034Z,42.47
2019-03-21T16:06:03.960Z,42.53
2019-03-21T16:08:35.181Z,42.75
2019-03-21T16:11:06.407Z,42.95
2019-03-21T16:13:37.605Z,43.03
2019-03-21T16:16:08.704Z,43.41
2019-03-21T16:18:39.796Z,43.78
2019-03-21T16:21:11.167Z,44.14
2019-03-21T16:23:43.201Z,44.22
2019-03-21T16:26:15.347Z,44.52
2019-03-21T16:28:46.629Z,44.55
2019-03-21T16:31:17.770Z,44.61
2019-03-21T16:33:48.901Z,44.83
2019-03-21T16:36:23.331Z,45.08
2019-03-21T16:38:54.423Z,45.50
2019-03-21T16:41:25.557Z,45.86
2019-03-21T16:43:56.567Z,46.00
2019-03-21T16:46:27.724Z,46.09
2019-03-21T16:48:58.922Z,46.27
2019-03-21T16:51:30.078Z,46.38
2019-03-21T16:54:01.483Z,46.58
2019-03-21T16:56:32.645Z,46.65
2019-03-21T16:59:03.982Z,46.84
2019-03-21T17:01:35.164Z,47.16
2019-03-21T17:04:06.253Z,47.18
2019-03-21T17:06:37.535Z,47.23
2019-03-21T17:09:09.195Z,47.46
2019-03-21T17:11:43.576Z,47.53
2019-03-21T17:14:14.737Z,47.70
2019-03-21T17:16:45.971Z,48.10
2019-03-21T17:19:18.743Z,48.37
2019-03-21T17:21:49.882Z,48.67
2019-03-21T17:24:29.270Z,49.18
2019-03-21T17:26:54.027Z,49.92
2019-03-21T17:29:25.188Z,50.49
2019-03-21T17:31:56.267Z,51.18
2019-03-21T17:34:28.932Z,51.81
2019-03-21T17:37:01.808Z,53.27
2019-03-21T17:39:36.478Z,54.32
2019-03-21T17:42:08.148Z,54.42
2019-03-21T17:44:39.635Z,54.34
2019-03-21T17:47:10.812Z,54.41
2019-03-21T17:49:41.914Z,54.67
2019-03-21T17:52:13.072Z,54.77
2019-03-21T17:54:44.086Z,54.72
2019-03-21T17:57:33.869Z,54.21
2019-03-21T17:59:55.986Z,54.12
2019-03-21T18:02:27.163Z,53.58
2019-03-21T18:04:58.222Z,52.38
2019-03-21T18:07:29.385Z,52.81
2019-03-21T18:10:00.680Z,52.86
2019-03-21T18:12:33.586Z,52.76
2019-03-21T18:15:06.747Z,52.68
2019-03-21T18:17:37.990Z,52.42
2019-03-21T18:20:09.426Z,52.62
2019-03-21T18:22:41.066Z,53.18
2019-03-21T18:25:12.304Z,53.43
2019-03-21T18:27:43.633Z,54.06
2019-03-21T18:30:14.853Z,54.58
2019-03-21T18:32:47.308Z,54.88
2019-03-21T18:35:18.399Z,54.68
2019-03-21T18:37:49.909Z,54.83
2019-03-21T18:40:21.297Z,55.00
2019-03-21T18:42:52.480Z,55.20
2019-03-21T18:45:23.627Z,55.30
2019-03-21T18:47:54.753Z,55.49
2019-03-21T18:50:25.928Z,55.71
2019-03-21T18:52:57.069Z,55.69
2019-03-21T18:55:28.247Z,56.38
2019-03-21T18:57:59.405Z,56.13
2019-03-21T19:00:33.986Z,55.63
2019-03-21T19:03:05.371Z,55.36
2019-03-21T19:05:36.688Z,54.94
2019-03-21T19:08:07.758Z,55.40
2019-03-21T19:10:39.023Z,55.41
2019-03-21T19:13:10.678Z,55.33
2019-03-21T19:15:41.906Z,55.28
2019-03-21T19:18:13.171Z,55.06
2019-03-21T19:20:47.044Z,55.16
2019-03-21T19:23:18.177Z,55.43
2019-03-21T19:25:49.345Z,55.45
2019-03-21T19:28:20.493Z,55.24
2019-03-21T19:30:51.660Z,55.14
2019-03-21T19:33:23.118Z,54.96
2019-03-21T19:35:55.917Z,54.62
2019-03-21T19:38:26.982Z,54.90
2019-03-21T19:40:58.425Z,54.90
2019-03-21T19:43:29.589Z,54.70
2019-03-21T19:46:00.895Z,54.71
2019-03-21T19:48:49.746Z,54.69
2019-03-21T19:51:12.276Z,55.13
2019-03-21T19:53:44.615Z,54.74
2019-03-21T19:56:15.634Z,54.81
2019-03-21T19:58:47.958Z,54.79
2019-03-21T20:01:19.365Z,55.17
2019-03-21T20:03:50.645Z,55.17
2019-03-21T20:06:22.040Z,55.08
2019-03-21T20:08:53.186Z,55.33
2019-03-21T20:11:26.707Z,55.57
2019-03-21T20:13:59.442Z,55.98
2019-03-21T20:16:30.746Z,55.82
2019-03-21T20:19:01.915Z,55.85
2019-03-21T20:21:33.175Z,55.92
2019-03-21T20:24:04.383Z,56.06
2019-03-21T20:26:35.835Z,56.36
2019-03-21T20:29:08.759Z,56.36
2019-03-21T20:31:40.015Z,56.25
2019-03-21T20:34:12.846Z,56.68
2019-03-21T20:36:44.551Z,56.85
2019-03-21T20:39:15.800Z,56.87
2019-03-21T20:41:47.195Z,56.85
2019-03-21T20:44:18.588Z,56.64
2019-03-21T20:46:50.803Z,56.41
2019-03-21T20:49:21.952Z,56.09
2019-03-21T20:51:57.076Z,55.95
2019-03-21T20:54:28.448Z,55.93
2019-03-21T20:56:59.493Z,55.67
2019-03-21T20:59:30.736Z,55.86
2019-03-21T21:02:03.353Z,56.21
2019-03-21T21:04:35.061Z,56.64
2019-03-21T21:07:06.168Z,56.64
2019-03-21T21:09:37.328Z,56.67
2019-03-21T21:12:08.669Z,57.01
2019-03-21T21:14:40.059Z,56.87
2019-03-21T21:17:11.751Z,56.97
2019-03-21T21:19:43.193Z,56.66
2019-03-21T21:22:14.746Z,56.07
2019-03-21T21:24:47.355Z,56.16
2019-03-21T21:27:18.409Z,56.11
2019-03-21T21:29:49.755Z,55.83
2019-03-21T21:32:22.123Z,56.07
2019-03-21T21:34:54.777Z,56.07
2019-03-21T21:37:26.157Z,56.10
2019-03-21T21:39:57.708Z,56.08
2019-03-21T21:42:28.882Z,56.33
2019-03-21T21:45:00.629Z,56.54
2019-03-21T21:47:31.999Z,57.08
2019-03-21T21:50:04.316Z,56.99
2019-03-21T21:52:41.843Z,56.96
2019-03-21T21:55:09.183Z,57.01
2019-03-21T21:57:41.963Z,56.62
2019-03-21T22:00:18.569Z,56.61
2019-03-21T22:02:51.813Z,55.74
2019-03-21T22:05:23.066Z,54.98
2019-03-21T22:07:54.772Z,54.51
2019-03-21T22:10:29.392Z,54.13
2019-03-21T22:13:00.181Z,54.68
2019-03-21T22:15:32.114Z,55.31
2019-03-21T22:18:04.803Z,55.44
2019-03-21T22:20:36.040Z,55.96
2019-03-21T22:23:07.163Z,56.69
2019-03-21T22:25:38.441Z,56.55
2019-03-21T22:28:10.321Z,56.64
2019-03-21T22:30:41.811Z,56.55
2019-03-21T22:33:14.548Z,56.71
2019-03-21T22:35:46.068Z,56.86
2019-03-21T22:38:20.973Z,57.38
2019-03-21T22:40:52.382Z,57.81
2019-03-21T22:43:28.256Z,58.48
2019-03-21T22:45:59.642Z,58.32
2019-03-21T22:48:30.777Z,58.52
2019-03-21T22:51:03.160Z,58.60
2019-03-21T22:53:36.287Z,58.68
2019-03-21T22:56:07.803Z,59.30
2019-03-21T22:58:39.184Z,59.65
2019-03-21T23:01:10.256Z,59.77
2019-03-21T23:03:43.314Z,60.10
2019-03-21T23:06:28.156Z,60.23
2019-03-21T23:08:59.473Z,60.26
2019-03-21T23:11:31.129Z,60.57
2019-03-21T23:14:02.482Z,60.89
2019-03-21T23:16:33.859Z,60.73
2019-03-21T23:19:04.954Z,60.88
2019-03-21T23:21:35.971Z,61.05
2019-03-21T23:24:07.647Z,60.90
2019-03-21T23:26:38.926Z,61.03
2019-03-21T23:29:10.097Z,61.45
2019-03-21T23:31:41.306Z,61.40
2019-03-21T23:34:12.555Z,61.40
2019-03-21T23:36:44.810Z,61.44
2019-03-21T23:39:16.006Z,61.35
2019-03-21T23:41:47.709Z,61.59
2019-03-21T23:44:20.078Z,61.79
2019-03-21T23:46:51.251Z,61.72
2019-03-21T23:49:22.540Z,61.72
2019-03-21T23:51:53.668Z,61.64
2019-03-21T23:54:24.851Z,61.55
2019-03-21T23:57:04.046Z,61.44
2019-03-21T23:59:28.754Z,61.34
